Time;durP1;ratioP1;P1;durP2;ratioP2;P2;SDS_P1;SDS_P2;PMS_P1;PMS_P2;Temp;Humidity;BMP_temperature;BMP_pressure;BME280_temperature;BME280_humidity;BME280_pressure;Samples;Min_cycle;Max_cycle;Signal;HPM_P1;HPM_P2
2022/09/25 00:06:47;;;;;;;6.70;5.22;;;;;;;21.91;53.68;100163.38;20633816;28;20120;-75
2022/09/25 00:16:47;;;;;;;6.07;5.03;;;;;;;21.88;53.39;100158.34;20634988;28;20488;-76
2022/09/25 00:26:48;;;;;;;6.70;5.18;;;;;;;21.87;53.46;100139.06;20645383;28;20089;-75
2022/09/25 00:36:48;;;;;;;7.85;5.43;;;;;;;21.85;53.68;100133.09;20636444;28;20077;-76
2022/09/25 00:46:49;;;;;;;6.45;5.30;;;;;;;21.86;53.96;100144.47;20630507;28;20042;-77
2022/09/25 00:56:51;;;;;;;6.15;5.55;;;;;;;21.84;53.92;100130.59;20627023;28;20042;-76
2022/09/25 01:06:52;;;;;;;6.50;5.10;;;;;;;21.84;53.48;100127.97;20622283;28;20049;-77
2022/09/25 01:17:11;;;;;;;6.43;5.68;;;;;;;21.83;53.72;100137.66;20632693;28;20049;-78
2022/09/25 01:27:32;;;;;;;7.60;6.05;;;;;;;21.82;53.79;100127.25;20628595;28;20042;-76
2022/09/25 01:37:51;;;;;;;8.75;6.72;;;;;;;21.82;53.68;100133.34;20635344;28;20123;-75
2022/09/25 01:47:52;;;;;;;7.13;5.57;;;;;;;21.80;53.25;100129.16;20626272;28;20132;-75
2022/09/25 01:58:23;;;;;;;6.57;5.88;;;;;;;21.79;53.59;100123.06;20625175;28;20046;-76
2022/09/25 02:08:31;;;;;;;8.93;6.70;;;;;;;21.77;53.67;100109.19;20631720;28;20077;-77
2022/09/25 02:29:02;;;;;;;6.97;6.20;;;;;;;21.78;53.59;100126.66;20607723;28;20041;-78
2022/09/25 02:39:03;;;;;;;6.97;6.18;;;;;;;;;;20623310;28;20046;-78
2022/09/25 02:49:06;;;;;;;7.78;6.18;;;;;;;21.74;53.62;100123.44;20631015;28;20045;-78
2022/09/25 02:59:17;;;;;;;8.88;6.43;;;;;;;21.74;53.56;100112.09;20613377;28;20068;-78
2022/09/25 03:09:20;;;;;;;6.85;6.03;;;;;;;21.72;53.50;100100.81;20621136;28;20132;-79
2022/09/25 03:19:23;;;;;;;6.97;5.93;;;;;;;21.72;53.61;100092.91;20621790;28;20057;-78
2022/09/25 03:29:23;;;;;;;10.38;6.15;;;;;;;21.70;53.63;100086.94;20617750;28;20045;-78
2022/09/25 03:39:23;;;;;;;7.35;5.78;;;;;;;21.67;53.68;100090.66;20618880;28;20046;-78
2022/09/25 03:49:24;;;;;;;7.03;6.13;;;;;;;21.67;53.52;100089.84;20624310;28;20034;-79
2022/09/25 03:59:25;;;;;;;7.28;5.75;;;;;;;21.66;53.67;100120.63;20630483;28;20053;-79
2022/09/25 04:09:26;;;;;;;7.10;5.57;;;;;;;21.66;53.45;100128.53;20620029;28;20055;-79
2022/09/25 04:19:26;;;;;;;6.22;5.53;;;;;;;21.65;53.53;100110.22;20617578;28;20176;-79
2022/09/25 04:29:26;;;;;;;7.88;5.40;;;;;;;21.64;53.98;100100.63;20632576;28;20042;-79
2022/09/25 04:39:27;;;;;;;6.50;5.20;;;;;;;21.62;53.71;100108.69;20627346;28;20204;-79
2022/09/25 04:49:28;;;;;;;6.57;5.57;;;;;;;21.61;54.00;100101.72;20633101;28;20125;-79
2022/09/25 04:59:29;;;;;;;7.30;5.15;;;;;;;21.61;53.85;100095.63;20627666;28;20050;-76
2022/09/25 05:09:30;;;;;;;6.25;5.22;;;;;;;21.61;53.56;100103.53;20630112;28;20086;-75
2022/09/25 05:19:31;;;;;;;5.85;5.13;;;;;;;21.58;54.11;100121.25;20636303;28;20130;-75
2022/09/25 05:29:31;;;;;;;8.50;5.35;;;;;;;21.59;54.38;100115.03;20651536;28;20041;-75
2022/09/25 05:39:32;;;;;;;5.70;5.10;;;;;;;21.57;54.52;100108.22;20659281;28;20092;-76
2022/09/25 05:49:32;;;;;;;5.43;4.88;;;;;;;21.63;54.36;100131.44;20636627;28;20042;-75
2022/09/25 05:59:33;;;;;;;16.42;5.55;;;;;;;21.69;54.76;100130.06;20604938;28;20049;-75
2022/09/25 06:09:34;;;;;;;7.10;4.70;;;;;;;21.77;55.18;100132.91;20615544;28;20054;-75
2022/09/25 06:19:35;;;;;;;10.50;9.10;;;;;;;21.79;56.25;100143.31;20630605;28;20050;-74
2022/09/25 06:29:35;;;;;;;11.23;9.70;;;;;;;21.82;56.09;100146.50;20611567;28;20141;-75
2022/09/25 06:39:36;;;;;;;14.55;9.52;;;;;;;21.82;55.94;100149.16;20591726;28;20165;-75
2022/09/25 06:49:36;;;;;;;13.38;9.55;;;;;;;21.82;55.83;100141.25;20580710;28;20556;-76
2022/09/25 06:59:37;;;;;;;12.52;9.32;;;;;;;21.85;55.73;100146.28;20585254;28;20049;-74
2022/09/25 07:09:37;;;;;;;10.50;9.10;;;;;;;21.88;55.59;100166.25;20595537;28;20062;-75
2022/09/25 07:19:38;;;;;;;13.40;11.18;;;;;;;21.90;55.69;100154.63;20615034;28;20067;-76
2022/09/25 07:29:39;;;;;;;15.27;9.80;;;;;;;21.77;52.01;100139.97;20608069;28;20049;-74
2022/09/25 07:39:39;;;;;;;11.95;9.60;;;;;;;21.87;53.24;100148.78;20597403;28;20046;-76
2022/09/25 07:49:40;;;;;;;18.48;9.05;;;;;;;21.90;53.60;100138.81;20582774;28;20129;-73
2022/09/25 07:59:41;;;;;;;16.48;8.18;;;;;;;21.91;52.37;100113.28;20600411;28;20140;-78
2022/09/25 08:09:41;;;;;;;16.80;8.13;;;;;;;21.93;53.25;100118.44;20593466;28;20584;-74
2022/09/25 08:19:41;;;;;;;17.75;8.20;;;;;;;21.97;53.25;100114.56;20589884;28;20050;-79
2022/09/25 08:29:42;;;;;;;17.38;8.50;;;;;;;21.95;53.59;100127.88;20585234;28;20057;-75
2022/09/25 08:39:43;;;;;;;17.13;8.25;;;;;;;21.99;53.85;100131.91;20597005;28;20074;-75
2022/09/25 08:50:24;;;;;;;20.58;8.10;;;;;;;22.02;54.00;100117.63;20607307;28;20034;-76
2022/09/25 09:00:25;;;;;;;25.05;9.10;;;;;;;22.06;54.69;100124.31;20593547;28;20051;-74
2022/09/25 09:10:37;;;;;;;21.52;8.95;;;;;;;22.10;54.54;100128.38;20603475;28;20108;-76
2022/09/25 09:20:52;;;;;;;18.25;8.27;;;;;;;22.10;54.25;100138.09;20581411;28;20080;-76
2022/09/25 09:31:19;;;;;;;8.27;5.82;;;;;;;20.47;47.43;100132.78;20607249;28;20046;-76
2022/09/25 09:41:32;;;;;;;5.13;3.58;;;;;;;20.31;47.52;100141.00;20590104;28;20048;-75
2022/09/25 09:51:44;;;;;;;9.60;3.67;;;;;;;20.58;47.41;100132.75;20610788;28;20045;-78
2022/09/25 10:01:56;;;;;;;6.55;3.22;;;;;;;20.90;47.64;100126.75;20626070;28;20046;-75
2022/09/25 10:12:06;;;;;;;5.83;3.57;;;;;;;21.26;51.76;100127.38;20642776;28;20145;-75
2022/09/25 10:22:23;;;;;;;8.90;5.40;;;;;;;21.52;54.54;100121.75;20647009;28;20057;-75
2022/09/25 10:32:23;;;;;;;8.05;5.47;;;;;;;21.72;57.18;100119.28;20615384;28;20192;-76
2022/09/25 10:42:40;;;;;;;9.98;6.15;;;;;;;21.91;58.66;100126.47;20623751;28;20046;-75
2022/09/25 10:52:51;;;;;;;11.02;6.80;;;;;;;22.06;59.98;100111.16;20619982;28;20041;-75
2022/09/25 11:02:59;;;;;;;10.10;7.05;;;;;;;22.19;60.79;100095.09;20614786;28;20046;-75
2022/09/25 11:13:07;;;;;;;10.32;6.85;;;;;;;22.29;60.66;100068.75;20631926;28;20150;-75
2022/09/25 11:23:42;;;;;;;11.68;7.40;;;;;;;22.33;60.19;100086.81;20617789;28;20409;-75
2022/09/25 11:34:22;;;;;;;17.50;9.32;;;;;;;22.39;59.80;100083.66;20629035;28;20172;-75
2022/09/25 11:44:41;;;;;;;31.83;15.60;;;;;;;22.45;59.46;100081.47;20628132;28;20173;-75
2022/09/25 11:54:51;;;;;;;21.92;15.02;;;;;;;22.53;59.82;100085.13;20628135;28;20130;-76
2022/09/25 12:05:17;;;;;;;27.05;14.55;;;;;;;22.55;59.25;100075.25;20606797;28;20045;-73
2022/09/25 12:15:41;;;;;;;24.10;15.15;;;;;;;22.55;58.41;100077.06;20599166;28;20052;-74
2022/09/25 12:25:52;;;;;;;22.63;14.90;;;;;;;22.55;57.96;100074.41;20604233;28;21048;-74
2022/09/25 12:36:02;;;;;;;23.55;14.98;;;;;;;22.58;58.13;100066.22;20634814;28;20110;-80
2022/09/25 12:46:08;;;;;;;25.75;15.90;;;;;;;22.58;58.00;100053.03;20641796;28;20045;-76
2022/09/25 12:56:20;;;;;;;15.52;7.90;;;;;;;22.21;52.77;100045.69;20622496;28;20211;-75
2022/09/25 13:06:34;;;;;;;17.03;9.03;;;;;;;22.38;54.66;100060.91;20638829;28;20085;-75
2022/09/25 13:16:35;;;;;;;15.35;8.90;;;;;;;22.37;54.95;100047.81;20686668;28;24706;-75
2022/09/25 13:26:52;;;;;;;15.70;9.13;;;;;;;22.38;54.99;100047.69;20677967;28;20042;-74
2022/09/25 13:36:56;;;;;;;16.20;10.10;;;;;;;22.36;55.09;100046.13;20686692;28;20046;-75
2022/09/25 13:47:24;;;;;;;15.70;10.07;;;;;;;22.34;55.21;100037.56;20667003;28;20105;-75
2022/09/25 13:58:00;;;;;;;14.20;9.63;;;;;;;22.31;55.40;100043.09;20673248;28;21663;-74
2022/09/25 14:08:11;;;;;;;14.63;9.10;;;;;;;22.29;55.42;100031.81;20600039;28;20100;-75
2022/09/25 14:18:35;;;;;;;12.90;9.15;;;;;;;22.26;55.35;100032.09;20677476;28;20551;-75
2022/09/25 14:28:46;;;;;;;13.50;8.77;;;;;;;22.24;55.34;100034.88;20671219;28;20531;-76
2022/09/25 14:39:17;;;;;;;11.90;8.55;;;;;;;22.22;55.56;100026.25;20663465;28;20164;-75
2022/09/25 14:49:26;;;;;;;11.37;8.00;;;;;;;22.20;55.69;100007.94;20664611;28;20046;-74
2022/09/25 14:59:40;;;;;;;11.73;7.85;;;;;;;22.19;55.45;100008.06;20665993;28;20042;-75
2022/09/25 15:09:47;;;;;;;11.77;7.88;;;;;;;22.15;55.89;99999.59;20658098;28;20136;-75
2022/09/25 15:19:48;;;;;;;9.70;7.72;;;;;;;22.15;55.87;100006.66;20660282;28;20150;-75
2022/09/25 15:29:49;;;;;;;10.32;7.38;;;;;;;22.14;55.70;100000.56;20678254;28;20045;-75
2022/09/25 15:39:50;;;;;;;9.40;7.25;;;;;;;22.13;55.66;100001.53;20671005;28;20096;-75
2022/09/25 15:49:51;;;;;;;9.35;7.20;;;;;;;22.12;55.90;99989.31;20664056;28;20602;-74
2022/09/25 16:10:17;;;;;;;10.60;7.45;;;;;;;22.07;56.16;99979.16;20669298;28;20050;-74
2022/09/25 16:20:22;;;;;;;10.30;7.45;;;;;;;22.06;55.94;99974.03;20661148;28;20088;-75
2022/09/25 16:30:22;;;;;;;8.95;7.18;;;;;;;22.03;55.97;99975.16;20669303;28;20072;-75
2022/09/25 16:40:37;;;;;;;7.47;6.30;;;;;;;22.01;56.07;99968.34;20682597;28;20180;-76
2022/09/25 16:50:38;;;;;;;8.32;6.57;;;;;;;22.01;56.05;99960.44;20666231;28;20061;-74
2022/09/25 17:00:39;;;;;;;13.43;6.55;;;;;;;21.97;56.15;99946.69;20625366;28;20065;-76
2022/09/25 17:10:40;;;;;;;14.68;7.25;;;;;;;21.99;56.23;99942.09;20619045;28;20050;-73
2022/09/25 17:20:40;;;;;;;10.38;6.55;;;;;;;22.03;57.03;99938.25;20618356;28;20050;-75
2022/09/25 17:30:42;;;;;;;11.63;6.45;;;;;;;22.07;56.96;99933.53;20607797;28;20429;-74
2022/09/25 17:40:46;;;;;;;9.30;6.55;;;;;;;22.10;56.81;99919.22;20631783;28;20070;-74
2022/09/25 17:50:48;;;;;;;9.07;6.00;;;;;;;22.11;57.28;99916.44;20606192;28;20049;-75
2022/09/25 18:00:50;;;;;;;8.35;5.95;;;;;;;22.14;56.85;99907.44;20597178;28;20110;-75
2022/09/25 18:10:54;;;;;;;10.47;5.67;;;;;;;22.14;57.19;99897.75;20594518;28;20076;-75
2022/09/25 18:31:13;;;;;;;10.63;5.38;;;;;;;22.17;56.67;99904.53;20620640;28;20941;-76
2022/09/25 18:41:14;;;;;;;8.73;5.22;;;;;;;22.17;57.04;99907.19;20637981;28;20100;-74
2022/09/25 18:51:15;;;;;;;8.77;5.25;;;;;;;22.17;57.35;99912.44;20605962;28;20057;-74
2022/09/25 19:01:15;;;;;;;11.23;5.47;;;;;;;22.17;57.52;99900.09;20633658;28;20042;-73
2022/09/25 19:11:15;;;;;;;15.50;5.38;;;;;;;22.12;57.21;99898.81;20623402;28;20172;-74
2022/09/25 19:21:21;;;;;;;6.10;4.45;;;;;;;22.12;57.28;99888.28;20634711;28;20042;-75
2022/09/25 19:31:26;;;;;;;7.50;5.30;;;;;;;22.09;57.13;99886.75;20620659;28;20039;-74
2022/09/25 19:41:32;;;;;;;8.43;4.90;;;;;;;22.02;57.12;99873.28;20650283;28;20421;-73
2022/09/25 19:51:33;;;;;;;7.95;4.75;;;;;;;22.02;57.34;99873.28;20652196;28;20493;-75
2022/09/25 20:01:34;;;;;;;7.38;4.80;;;;;;;22.02;57.33;99877.72;20657322;28;20038;-73
2022/09/25 20:11:34;;;;;;;11.45;4.88;;;;;;;22.00;57.45;99879.69;20648792;28;20042;-73
2022/09/25 20:21:37;;;;;;;7.30;4.68;;;;;;;22.04;57.89;99868.69;20663811;28;20145;-74
2022/09/25 20:31:40;;;;;;;8.23;4.40;;;;;;;22.02;57.91;99878.56;20666135;28;20307;-75
2022/09/25 20:41:43;;;;;;;12.63;4.75;;;;;;;21.98;57.46;99874.50;20663240;28;20537;-75
2022/09/25 20:51:44;;;;;;;6.57;4.77;;;;;;;21.94;57.97;99859.97;20665667;28;20075;-74
2022/09/25 21:01:44;;;;;;;6.93;4.07;;;;;;;21.95;57.96;99856.34;20666751;28;20284;-74
2022/09/25 21:11:46;;;;;;;6.00;4.05;;;;;;;21.99;58.33;99863.00;20654253;28;20097;-74
2022/09/25 21:21:47;;;;;;;9.82;4.15;;;;;;;22.02;57.93;99861.91;20659278;28;20038;-74
2022/09/25 21:31:48;;;;;;;6.00;4.30;;;;;;;21.99;57.56;99849.00;20641224;28;20157;-74
2022/09/25 21:41:48;;;;;;;7.00;3.92;;;;;;;21.97;57.98;99828.06;20649637;28;20042;-73
2022/09/25 21:51:49;;;;;;;6.30;4.05;;;;;;;21.94;58.08;99807.22;20641260;28;20112;-73
2022/09/25 22:01:50;;;;;;;5.57;4.03;;;;;;;21.94;58.01;99791.41;20644878;28;20048;-73
2022/09/25 22:11:51;;;;;;;6.50;3.70;;;;;;;21.95;58.01;99781.69;20645626;28;20513;-73
2022/09/25 22:21:53;;;;;;;4.03;3.50;;;;;;;21.93;57.72;99776.56;20649933;28;20057;-74
2022/09/25 22:31:53;;;;;;;4.82;3.28;;;;;;;21.92;57.63;99777.53;20649808;28;20038;-73
2022/09/25 22:41:58;;;;;;;5.18;3.75;;;;;;;22.00;58.76;99775.03;20643466;28;20158;-74
2022/09/25 22:51:59;;;;;;;4.15;3.53;;;;;;;22.01;58.86;99763.53;20630572;28;20042;-74
2022/09/25 23:01:59;;;;;;;4.13;3.10;;;;;;;21.99;58.81;99743.56;20635924;28;20095;-74
2022/09/25 23:12:00;;;;;;;4.57;3.17;;;;;;;21.98;58.84;99731.34;20619960;28;20666;-74
2022/09/25 23:22:00;;;;;;;4.90;3.45;;;;;;;21.97;58.67;99716.50;20628106;28;20042;-74
2022/09/25 23:32:01;;;;;;;3.75;3.22;;;;;;;21.95;58.49;99710.53;20625692;28;20042;-74
2022/09/25 23:42:01;;;;;;;4.82;3.30;;;;;;;21.94;58.37;99706.25;20630424;28;20505;-74
2022/09/25 23:52:02;;;;;;;3.70;3.03;;;;;;;21.94;58.25;99695.72;20627082;28;20054;-75
